sensor_id;sensor_type;location;lat;lon;timestamp;P1;P2;P0
59179;PMS7003;44956;52.422;20.818;2022-10-31T00:01:54;51.33;43.00;29.00
59179;PMS7003;44956;52.422;20.818;2022-10-31T00:05:57;52.33;42.00;28.33
59179;PMS7003;44956;52.422;20.818;2022-10-31T00:09:40;57.67;47.67;30.33
59179;PMS7003;44956;52.422;20.818;2022-10-31T00:13:56;59.67;47.00;31.00
59179;PMS7003;44956;52.422;20.818;2022-10-31T01:31:18;68.67;54.67;32.67
59179;PMS7003;44956;52.422;20.818;2022-10-31T01:34:56;69.33;53.33;33.00
59179;PMS7003;44956;52.422;20.818;2022-10-31T08:13:46;77.33;61.00;40.00
59179;PMS7003;44956;52.422;20.818;2022-10-31T08:17:12;84.33;63.33;39.33
59179;PMS7003;44956;52.422;20.818;2022-10-31T08:32:21;74.00;58.67;35.67
59179;PMS7003;44956;52.422;20.818;2022-10-31T08:37:05;76.00;60.00;36.67
59179;PMS7003;44956;52.422;20.818;2022-10-31T08:43:40;72.33;58.00;36.00
59179;PMS7003;44956;52.422;20.818;2022-10-31T08:46:54;74.67;61.33;38.33
59179;PMS7003;44956;52.422;20.818;2022-10-31T09:03:29;68.00;54.75;34.00
59179;PMS7003;44956;52.422;20.818;2022-10-31T09:06:36;65.50;51.75;33.00
59179;PMS7003;44956;52.422;20.818;2022-10-31T09:09:57;72.25;56.00;34.75
59179;PMS7003;44956;52.422;20.818;2022-10-31T09:13:03;62.50;52.50;32.25
59179;PMS7003;44956;52.422;20.818;2022-10-31T09:16:45;64.75;52.25;32.50
59179;PMS7003;44956;52.422;20.818;2022-10-31T10:07:03;50.50;41.25;26.00
59179;PMS7003;44956;52.422;20.818;2022-10-31T10:25:45;46.00;37.25;25.00
59179;PMS7003;44956;52.422;20.818;2022-10-31T10:28:57;45.25;39.75;26.00
59179;PMS7003;44956;52.422;20.818;2022-10-31T10:32:12;43.25;37.00;25.00
59179;PMS7003;44956;52.422;20.818;2022-10-31T10:35:31;43.25;37.25;22.00
59179;PMS7003;44956;52.422;20.818;2022-10-31T10:38:46;45.25;37.00;22.00
59179;PMS7003;44956;52.422;20.818;2022-10-31T10:41:55;39.75;36.00;23.00
59179;PMS7003;44956;52.422;20.818;2022-10-31T10:45:19;39.25;35.50;22.00
59179;PMS7003;44956;52.422;20.818;2022-10-31T10:49:03;37.50;33.25;21.75
59179;PMS7003;44956;52.422;20.818;2022-10-31T10:52:13;38.00;33.25;21.50
59179;PMS7003;44956;52.422;20.818;2022-10-31T10:59:02;33.00;32.75;21.00
59179;PMS7003;44956;52.422;20.818;2022-10-31T11:02:16;34.50;32.75;22.00
59179;PMS7003;44956;52.422;20.818;2022-10-31T11:05:25;33.50;29.75;20.75
59179;PMS7003;44956;52.422;20.818;2022-10-31T11:08:32;34.25;32.50;20.75
59179;PMS7003;44956;52.422;20.818;2022-10-31T11:11:39;27.75;24.00;16.25
59179;PMS7003;44956;52.422;20.818;2022-10-31T11:14:43;30.25;27.50;19.25
59179;PMS7003;44956;52.422;20.818;2022-10-31T11:17:57;34.50;31.75;17.50
59179;PMS7003;44956;52.422;20.818;2022-10-31T11:21:01;32.00;29.75;19.50
59179;PMS7003;44956;52.422;20.818;2022-10-31T11:27:19;30.25;26.25;17.75
59179;PMS7003;44956;52.422;20.818;2022-10-31T11:30:23;34.25;32.00;19.00
59179;PMS7003;44956;52.422;20.818;2022-10-31T11:33:30;32.75;29.25;19.00
59179;PMS7003;44956;52.422;20.818;2022-10-31T11:36:42;36.00;32.00;20.75
59179;PMS7003;44956;52.422;20.818;2022-10-31T11:39:50;30.75;30.75;19.75
59179;PMS7003;44956;52.422;20.818;2022-10-31T11:42:56;35.00;32.25;19.50
59179;PMS7003;44956;52.422;20.818;2022-10-31T11:46:11;34.75;30.25;21.25
59179;PMS7003;44956;52.422;20.818;2022-10-31T11:52:38;39.00;34.00;21.50
59179;PMS7003;44956;52.422;20.818;2022-10-31T12:17:33;34.25;30.25;19.00
59179;PMS7003;44956;52.422;20.818;2022-10-31T13:46:00;49.75;40.25;25.00
59179;PMS7003;44956;52.422;20.818;2022-10-31T13:49:40;40.25;36.00;22.00
59179;PMS7003;44956;52.422;20.818;2022-10-31T13:52:42;39.50;36.00;24.25
59179;PMS7003;44956;52.422;20.818;2022-10-31T13:55:46;45.00;36.00;23.00
59179;PMS7003;44956;52.422;20.818;2022-10-31T13:58:56;42.75;36.75;23.75
59179;PMS7003;44956;52.422;20.818;2022-10-31T14:02:12;38.75;33.75;22.75
59179;PMS7003;44956;52.422;20.818;2022-10-31T14:08:58;42.25;36.25;24.00
59179;PMS7003;44956;52.422;20.818;2022-10-31T14:12:14;34.25;33.50;22.50
59179;PMS7003;44956;52.422;20.818;2022-10-31T14:24:57;33.50;31.50;19.75
59179;PMS7003;44956;52.422;20.818;2022-10-31T14:28:02;38.00;33.75;22.75
59179;PMS7003;44956;52.422;20.818;2022-10-31T14:31:29;33.50;31.25;20.00
59179;PMS7003;44956;52.422;20.818;2022-10-31T14:42:13;48.75;40.00;26.00
59179;PMS7003;44956;52.422;20.818;2022-10-31T14:52:38;55.00;43.75;26.75
59179;PMS7003;44956;52.422;20.818;2022-10-31T14:55:45;52.75;42.25;26.00
59179;PMS7003;44956;52.422;20.818;2022-10-31T14:58:50;54.25;43.50;27.50
59179;PMS7003;44956;52.422;20.818;2022-10-31T15:01:55;53.25;42.50;27.00
59179;PMS7003;44956;52.422;20.818;2022-10-31T15:05:00;54.00;44.50;26.50
59179;PMS7003;44956;52.422;20.818;2022-10-31T15:08:12;54.50;45.00;27.75
59179;PMS7003;44956;52.422;20.818;2022-10-31T15:11:17;57.00;47.00;29.25
59179;PMS7003;44956;52.422;20.818;2022-10-31T15:14:28;56.75;46.75;29.75
59179;PMS7003;44956;52.422;20.818;2022-10-31T15:17:32;52.50;43.25;28.00
59179;PMS7003;44956;52.422;20.818;2022-10-31T15:20:41;52.25;44.50;27.75
59179;PMS7003;44956;52.422;20.818;2022-10-31T15:23:45;56.00;45.75;30.00
59179;PMS7003;44956;52.422;20.818;2022-10-31T15:26:49;55.25;45.00;29.00
59179;PMS7003;44956;52.422;20.818;2022-10-31T15:29:55;51.25;41.50;27.50
59179;PMS7003;44956;52.422;20.818;2022-10-31T15:32:58;55.25;44.25;27.25
59179;PMS7003;44956;52.422;20.818;2022-10-31T15:36:01;54.50;45.00;28.00
59179;PMS7003;44956;52.422;20.818;2022-10-31T15:39:04;57.25;45.50;27.25
59179;PMS7003;44956;52.422;20.818;2022-10-31T15:45:36;58.75;49.25;29.75
59179;PMS7003;44956;52.422;20.818;2022-10-31T15:48:38;51.00;42.50;24.50
59179;PMS7003;44956;52.422;20.818;2022-10-31T15:51:51;57.25;46.00;28.25
59179;PMS7003;44956;52.422;20.818;2022-10-31T15:54:57;58.75;46.50;27.50
59179;PMS7003;44956;52.422;20.818;2022-10-31T15:58:33;58.00;46.75;28.25
59179;PMS7003;44956;52.422;20.818;2022-10-31T16:01:55;59.25;48.00;30.00
59179;PMS7003;44956;52.422;20.818;2022-10-31T16:05:19;52.75;43.00;27.75
59179;PMS7003;44956;52.422;20.818;2022-10-31T16:12:14;59.00;45.75;28.50
59179;PMS7003;44956;52.422;20.818;2022-10-31T16:16:01;64.75;52.50;31.00
59179;PMS7003;44956;52.422;20.818;2022-10-31T16:20:29;48.25;41.25;26.75
59179;PMS7003;44956;52.422;20.818;2022-10-31T16:34:00;62.50;47.25;28.75
59179;PMS7003;44956;52.422;20.818;2022-10-31T16:59:09;46.25;39.25;24.50
59179;PMS7003;44956;52.422;20.818;2022-10-31T17:03:23;62.50;50.00;31.00
59179;PMS7003;44956;52.422;20.818;2022-10-31T17:06:39;59.00;47.50;29.75
59179;PMS7003;44956;52.422;20.818;2022-10-31T17:09:48;54.50;46.00;27.75
59179;PMS7003;44956;52.422;20.818;2022-10-31T17:12:58;64.00;50.00;31.00
59179;PMS7003;44956;52.422;20.818;2022-10-31T17:16:04;57.00;45.25;28.00
59179;PMS7003;44956;52.422;20.818;2022-10-31T17:19:13;53.00;45.50;27.50
59179;PMS7003;44956;52.422;20.818;2022-10-31T17:22:17;46.25;40.75;26.25
59179;PMS7003;44956;52.422;20.818;2022-10-31T17:25:21;44.00;39.75;25.50
59179;PMS7003;44956;52.422;20.818;2022-10-31T17:47:34;61.25;49.00;27.50
59179;PMS7003;44956;52.422;20.818;2022-10-31T17:51:49;57.50;47.00;28.00
59179;PMS7003;44956;52.422;20.818;2022-10-31T17:55:09;67.50;52.25;31.25
59179;PMS7003;44956;52.422;20.818;2022-10-31T17:58:16;65.00;51.00;32.00
59179;PMS7003;44956;52.422;20.818;2022-10-31T18:06:57;72.50;55.50;33.00
59179;PMS7003;44956;52.422;20.818;2022-10-31T18:11:15;66.50;51.25;31.50
59179;PMS7003;44956;52.422;20.818;2022-10-31T18:15:03;66.50;52.75;31.00
59179;PMS7003;44956;52.422;20.818;2022-10-31T18:39:19;76.25;57.25;33.25
59179;PMS7003;44956;52.422;20.818;2022-10-31T18:42:23;67.25;53.00;31.00
59179;PMS7003;44956;52.422;20.818;2022-10-31T18:45:32;69.25;52.00;31.00
59179;PMS7003;44956;52.422;20.818;2022-10-31T18:48:59;66.50;52.00;33.00
59179;PMS7003;44956;52.422;20.818;2022-10-31T18:56:11;68.00;51.75;31.00
59179;PMS7003;44956;52.422;20.818;2022-10-31T18:59:43;68.75;51.00;31.00
59179;PMS7003;44956;52.422;20.818;2022-10-31T19:34:15;68.00;50.50;30.00
59179;PMS7003;44956;52.422;20.818;2022-10-31T19:51:06;71.50;54.75;32.25
59179;PMS7003;44956;52.422;20.818;2022-10-31T19:54:11;64.75;51.25;31.00
59179;PMS7003;44956;52.422;20.818;2022-10-31T19:57:52;64.25;50.50;30.75
59179;PMS7003;44956;52.422;20.818;2022-10-31T20:01:15;67.50;50.25;30.75
59179;PMS7003;44956;52.422;20.818;2022-10-31T20:10:04;61.50;49.50;30.50
59179;PMS7003;44956;52.422;20.818;2022-10-31T20:18:09;64.75;49.00;30.75
59179;PMS7003;44956;52.422;20.818;2022-10-31T20:21:15;53.00;42.25;26.00
59179;PMS7003;44956;52.422;20.818;2022-10-31T20:42:32;45.25;39.25;24.50
59179;PMS7003;44956;52.422;20.818;2022-10-31T20:45:36;56.00;45.00;28.50
59179;PMS7003;44956;52.422;20.818;2022-10-31T20:48:43;48.25;41.00;26.00
59179;PMS7003;44956;52.422;20.818;2022-10-31T20:51:49;53.25;43.50;27.00
59179;PMS7003;44956;52.422;20.818;2022-10-31T21:01:04;55.25;43.50;26.25
59179;PMS7003;44956;52.422;20.818;2022-10-31T21:21:41;45.50;40.25;27.00
59179;PMS7003;44956;52.422;20.818;2022-10-31T21:24:44;60.25;43.25;28.00
59179;PMS7003;44956;52.422;20.818;2022-10-31T21:27:46;52.25;44.25;28.00
59179;PMS7003;44956;52.422;20.818;2022-10-31T21:30:49;49.25;41.75;25.50
59179;PMS7003;44956;52.422;20.818;2022-10-31T21:33:53;51.25;42.00;26.75
59179;PMS7003;44956;52.422;20.818;2022-10-31T21:36:56;53.50;40.00;25.00
59179;PMS7003;44956;52.422;20.818;2022-10-31T21:39:59;61.50;47.50;29.00
59179;PMS7003;44956;52.422;20.818;2022-10-31T21:43:02;46.25;39.50;25.00
59179;PMS7003;44956;52.422;20.818;2022-10-31T21:46:13;46.50;39.00;24.50
59179;PMS7003;44956;52.422;20.818;2022-10-31T21:49:17;51.00;40.75;25.75
59179;PMS7003;44956;52.422;20.818;2022-10-31T21:52:19;59.00;43.50;26.00
59179;PMS7003;44956;52.422;20.818;2022-10-31T21:55:22;57.00;42.50;25.25
59179;PMS7003;44956;52.422;20.818;2022-10-31T21:58:25;54.50;41.50;25.00
59179;PMS7003;44956;52.422;20.818;2022-10-31T22:01:30;53.25;42.00;26.00
59179;PMS7003;44956;52.422;20.818;2022-10-31T22:04:34;39.25;36.50;24.50
59179;PMS7003;44956;52.422;20.818;2022-10-31T22:07:37;42.75;38.00;26.00
59179;PMS7003;44956;52.422;20.818;2022-10-31T22:10:41;45.75;39.50;25.00
59179;PMS7003;44956;52.422;20.818;2022-10-31T22:13:44;54.75;43.25;27.25
59179;PMS7003;44956;52.422;20.818;2022-10-31T22:20:20;47.75;38.75;24.25
59179;PMS7003;44956;52.422;20.818;2022-10-31T22:23:26;42.00;39.75;25.25
59179;PMS7003;44956;52.422;20.818;2022-10-31T22:26:31;43.25;38.75;24.50
59179;PMS7003;44956;52.422;20.818;2022-10-31T22:29:35;44.75;39.25;24.75
59179;PMS7003;44956;52.422;20.818;2022-10-31T22:32:39;45.75;39.00;24.25
59179;PMS7003;44956;52.422;20.818;2022-10-31T22:35:43;52.75;40.50;24.25
59179;PMS7003;44956;52.422;20.818;2022-10-31T22:38:47;54.00;42.00;26.00
59179;PMS7003;44956;52.422;20.818;2022-10-31T22:41:50;50.75;38.75;24.00
59179;PMS7003;44956;52.422;20.818;2022-10-31T22:44:54;42.25;37.25;25.75
59179;PMS7003;44956;52.422;20.818;2022-10-31T22:47:59;41.50;37.00;24.00
59179;PMS7003;44956;52.422;20.818;2022-10-31T22:51:04;42.00;36.25;24.00
59179;PMS7003;44956;52.422;20.818;2022-10-31T22:54:29;43.00;38.50;25.00
59179;PMS7003;44956;52.422;20.818;2022-10-31T22:57:32;46.25;38.50;25.00
59179;PMS7003;44956;52.422;20.818;2022-10-31T23:00:35;52.50;38.50;24.00
59179;PMS7003;44956;52.422;20.818;2022-10-31T23:03:38;40.00;37.50;25.75
59179;PMS7003;44956;52.422;20.818;2022-10-31T23:06:41;44.25;38.75;24.50
59179;PMS7003;44956;52.422;20.818;2022-10-31T23:09:44;34.75;33.50;23.75
59179;PMS7003;44956;52.422;20.818;2022-10-31T23:12:47;43.00;37.50;24.00
59179;PMS7003;44956;52.422;20.818;2022-10-31T23:16:09;43.00;39.00;24.50
59179;PMS7003;44956;52.422;20.818;2022-10-31T23:19:23;49.50;39.50;25.75
59179;PMS7003;44956;52.422;20.818;2022-10-31T23:22:30;40.75;36.25;24.00
59179;PMS7003;44956;52.422;20.818;2022-10-31T23:25:32;54.00;42.50;25.00
59179;PMS7003;44956;52.422;20.818;2022-10-31T23:28:54;46.25;40.00;24.00
59179;PMS7003;44956;52.422;20.818;2022-10-31T23:31:56;39.50;36.50;24.00
59179;PMS7003;44956;52.422;20.818;2022-10-31T23:35:02;50.25;39.25;24.75
59179;PMS7003;44956;52.422;20.818;2022-10-31T23:38:06;46.75;39.50;24.50
59179;PMS7003;44956;52.422;20.818;2022-10-31T23:41:09;39.50;37.75;25.00
59179;PMS7003;44956;52.422;20.818;2022-10-31T23:44:12;38.25;36.25;22.50
59179;PMS7003;44956;52.422;20.818;2022-10-31T23:47:16;38.00;36.25;24.00
59179;PMS7003;44956;52.422;20.818;2022-10-31T23:50:23;41.00;37.50;24.00
59179;PMS7003;44956;52.422;20.818;2022-10-31T23:53:26;44.25;37.00;24.00
59179;PMS7003;44956;52.422;20.818;2022-10-31T23:56:28;34.00;33.25;20.50
59179;PMS7003;44956;52.422;20.818;2022-10-31T23:59:31;47.75;40.25;24.00
